createdAt,value
2022-07-25T00:04:25.882Z,26.46
2022-07-25T00:09:16.336Z,26.38
2022-07-25T00:14:09.808Z,26.27
2022-07-25T00:19:00.487Z,26.15
2022-07-25T00:23:50.250Z,26.10
2022-07-25T00:28:39.941Z,26.07
2022-07-25T00:33:32.872Z,26.01
2022-07-25T00:38:22.789Z,25.98
2022-07-25T00:43:13.742Z,25.93
2022-07-25T00:48:03.459Z,25.86
2022-07-25T00:52:55.779Z,25.82
2022-07-25T00:57:45.716Z,25.78
2022-07-25T01:02:35.489Z,25.73
2022-07-25T01:07:26.031Z,25.64
2022-07-25T01:12:18.319Z,25.52
2022-07-25T01:17:08.324Z,25.38
2022-07-25T01:22:00.645Z,25.31
2022-07-25T01:26:50.293Z,25.12
2022-07-25T01:31:40.083Z,24.70
2022-07-25T01:36:29.850Z,24.52
2022-07-25T01:41:23.045Z,24.30
2022-07-25T01:46:12.875Z,24.19
2022-07-25T01:51:02.679Z,24.07
2022-07-25T01:55:52.744Z,24.06
2022-07-25T02:00:47.267Z,24.05
2022-07-25T02:05:37.358Z,23.91
2022-07-25T02:10:27.073Z,23.84
2022-07-25T02:15:16.857Z,23.82
2022-07-25T02:20:10.199Z,23.80
2022-07-25T02:24:59.977Z,23.76
2022-07-25T02:29:49.687Z,23.72
2022-07-25T02:34:39.391Z,23.69
2022-07-25T02:39:31.653Z,23.69
2022-07-25T02:44:21.640Z,23.64
2022-07-25T02:49:11.392Z,23.60
2022-07-25T02:54:01.227Z,23.51
2022-07-25T02:58:53.497Z,23.46
2022-07-25T03:03:43.183Z,23.45
2022-07-25T03:08:33.156Z,23.41
2022-07-25T03:13:22.954Z,23.43
2022-07-25T03:18:15.470Z,23.39
2022-07-25T03:23:05.385Z,23.37
2022-07-25T03:27:55.106Z,23.30
2022-07-25T03:32:44.805Z,23.22
2022-07-25T03:37:37.751Z,23.19
2022-07-25T03:42:32.184Z,23.07
2022-07-25T03:47:24.786Z,22.94
2022-07-25T03:52:14.637Z,22.96
2022-07-25T03:57:07.221Z,22.96
2022-07-25T04:01:57.478Z,22.87
2022-07-25T04:06:47.263Z,22.80
2022-07-25T04:11:38.523Z,22.75
2022-07-25T04:16:31.431Z,22.75
2022-07-25T04:21:21.207Z,22.74
2022-07-25T04:26:10.982Z,22.77
2022-07-25T04:31:00.845Z,22.69
2022-07-25T04:35:54.291Z,22.64
2022-07-25T04:40:44.659Z,22.67
2022-07-25T04:45:34.810Z,22.63
2022-07-25T04:50:25.858Z,22.60
2022-07-25T04:55:18.457Z,22.60
2022-07-25T05:00:10.800Z,22.55
2022-07-25T05:05:03.034Z,22.59
2022-07-25T05:09:53.158Z,22.58
2022-07-25T05:14:45.743Z,22.57
2022-07-25T05:19:38.225Z,22.46
2022-07-25T05:24:27.635Z,22.40
2022-07-25T05:29:17.211Z,22.33
2022-07-25T05:34:10.003Z,22.28
2022-07-25T05:38:59.616Z,22.28
2022-07-25T05:43:49.095Z,22.25
2022-07-25T05:48:38.979Z,22.25
2022-07-25T05:53:31.351Z,22.25
2022-07-25T05:58:22.202Z,22.24
2022-07-25T06:03:13.595Z,22.21
2022-07-25T06:08:03.759Z,22.14
2022-07-25T06:12:55.891Z,22.19
2022-07-25T06:17:45.667Z,22.22
2022-07-25T06:22:35.245Z,22.24
2022-07-25T06:27:29.093Z,22.30
2022-07-25T06:32:21.473Z,22.29
2022-07-25T06:37:10.971Z,22.19
2022-07-25T06:42:00.465Z,22.15
2022-07-25T06:46:56.643Z,22.14
2022-07-25T06:51:48.637Z,22.18
2022-07-25T06:56:38.080Z,22.14
2022-07-25T07:01:27.626Z,22.16
2022-07-25T07:06:17.313Z,22.18
2022-07-25T07:11:09.862Z,22.19
2022-07-25T07:15:59.694Z,22.28
2022-07-25T07:20:49.157Z,22.34
2022-07-25T07:25:38.716Z,22.38
2022-07-25T07:30:58.609Z,22.43
2022-07-25T07:35:41.344Z,22.49
2022-07-25T07:40:30.956Z,22.46
2022-07-25T07:45:21.501Z,22.49
2022-07-25T07:50:14.276Z,22.46
2022-07-25T07:55:16.212Z,22.54
2022-07-25T08:00:06.378Z,22.55
2022-07-25T08:05:01.585Z,22.55
2022-07-25T08:09:54.145Z,22.63
2022-07-25T08:14:43.624Z,22.78
2022-07-25T08:19:32.990Z,22.84
2022-07-25T08:24:22.549Z,22.87
2022-07-25T08:29:20.646Z,22.85
2022-07-25T08:34:12.343Z,22.80
2022-07-25T08:39:01.776Z,22.72
2022-07-25T08:43:52.243Z,22.55
2022-07-25T08:48:44.991Z,22.45
2022-07-25T08:53:35.438Z,22.58
2022-07-25T08:58:25.243Z,22.78
2022-07-25T09:03:15.155Z,22.96
2022-07-25T09:08:11.782Z,23.16
2022-07-25T09:13:02.381Z,23.43
2022-07-25T09:17:52.837Z,23.87
2022-07-25T09:22:51.572Z,24.19
2022-07-25T09:27:43.684Z,24.48
2022-07-25T09:32:33.223Z,24.37
2022-07-25T09:37:28.139Z,24.10
2022-07-25T09:42:18.831Z,23.97
2022-07-25T09:47:16.530Z,24.17
2022-07-25T09:52:06.235Z,24.16
2022-07-25T09:56:55.663Z,24.06
2022-07-25T10:02:00.661Z,24.03
2022-07-25T10:06:58.209Z,23.84
2022-07-25T10:12:03.087Z,23.78
2022-07-25T10:16:52.867Z,23.69
2022-07-25T10:21:43.749Z,23.82
2022-07-25T10:26:38.806Z,24.16
2022-07-25T10:31:29.620Z,24.19
2022-07-25T10:36:19.374Z,24.00
2022-07-25T10:41:15.448Z,23.93
2022-07-25T10:46:14.141Z,23.84
2022-07-25T10:51:04.521Z,23.91
2022-07-25T10:56:05.857Z,23.94
2022-07-25T11:00:56.196Z,23.83
2022-07-25T11:05:59.283Z,23.78
2022-07-25T11:10:53.675Z,23.58
2022-07-25T11:15:43.431Z,23.41
2022-07-25T11:20:32.844Z,23.23
2022-07-25T11:25:25.864Z,23.14
2022-07-25T11:30:16.978Z,23.14
2022-07-25T11:35:06.662Z,23.31
2022-07-25T11:39:56.557Z,23.38
2022-07-25T11:44:50.237Z,23.28
2022-07-25T11:49:51.305Z,23.18
2022-07-25T11:54:40.785Z,23.23
2022-07-25T11:59:30.204Z,23.27
2022-07-25T12:04:22.538Z,23.40
2022-07-25T12:09:18.940Z,23.42
2022-07-25T12:14:09.320Z,23.36
2022-07-25T12:18:58.870Z,23.33
2022-07-25T12:23:51.075Z,23.36
2022-07-25T12:28:40.601Z,23.43
2022-07-25T12:33:30.299Z,23.53
2022-07-25T12:38:19.773Z,23.58
2022-07-25T12:43:12.236Z,23.59
2022-07-25T12:48:01.635Z,23.63
2022-07-25T12:52:51.037Z,23.71
2022-07-25T12:57:40.608Z,23.73
2022-07-25T13:02:32.783Z,23.89
2022-07-25T13:07:22.425Z,24.11
2022-07-25T13:12:16.429Z,24.39
2022-07-25T13:17:06.489Z,24.53
2022-07-25T13:21:58.906Z,24.67
2022-07-25T13:26:48.833Z,24.56
2022-07-25T13:31:38.359Z,24.49
2022-07-25T13:36:27.941Z,24.63
2022-07-25T13:41:19.962Z,24.94
2022-07-25T13:46:10.505Z,25.03
2022-07-25T13:51:00.118Z,24.83
2022-07-25T13:55:51.981Z,24.75
2022-07-25T14:00:44.130Z,24.69
2022-07-25T14:05:33.703Z,24.74
2022-07-25T14:10:23.187Z,24.77
2022-07-25T14:15:13.615Z,24.71
2022-07-25T14:20:06.107Z,24.59
2022-07-25T14:24:55.504Z,24.49
2022-07-25T14:29:45.737Z,24.33
2022-07-25T14:34:35.700Z,24.30
2022-07-25T14:39:28.327Z,24.36
2022-07-25T14:44:18.453Z,24.45
2022-07-25T14:49:11.394Z,24.60
2022-07-25T14:54:02.152Z,24.58
2022-07-25T14:58:55.181Z,24.44
2022-07-25T15:03:45.238Z,24.56
2022-07-25T15:08:34.825Z,24.66
2022-07-25T15:13:32.596Z,24.61
2022-07-25T15:18:24.875Z,24.52
2022-07-25T15:23:14.345Z,24.61
2022-07-25T15:28:04.502Z,24.51
2022-07-25T15:32:53.937Z,24.59
2022-07-25T15:37:48.120Z,24.70
2022-07-25T15:42:37.745Z,24.76
2022-07-25T15:47:27.548Z,24.67
2022-07-25T15:52:18.110Z,24.60
2022-07-25T15:57:11.004Z,24.50
2022-07-25T16:02:00.693Z,24.44
2022-07-25T16:06:50.428Z,24.30
2022-07-25T16:11:40.137Z,24.17
2022-07-25T16:16:32.545Z,24.06
2022-07-25T16:21:22.356Z,23.93
2022-07-25T16:26:12.414Z,23.65
2022-07-25T16:31:03.450Z,23.37
2022-07-25T16:35:56.440Z,23.18
2022-07-25T16:40:46.336Z,22.98
2022-07-25T16:45:38.321Z,22.88
2022-07-25T16:50:27.756Z,22.75
2022-07-25T16:55:20.336Z,22.60
2022-07-25T17:00:10.804Z,22.49
2022-07-25T17:05:03.868Z,22.35
2022-07-25T17:09:53.377Z,22.29
2022-07-25T17:14:45.847Z,22.24
2022-07-25T17:19:39.780Z,22.17
2022-07-25T17:24:29.313Z,22.06
2022-07-25T17:29:18.975Z,22.01
2022-07-25T17:34:11.092Z,22.01
2022-07-25T17:39:00.552Z,21.92
2022-07-25T17:43:49.930Z,21.89
2022-07-25T17:48:39.966Z,21.87
2022-07-25T17:53:32.104Z,21.80
2022-07-25T17:58:21.540Z,21.68
2022-07-25T18:03:10.991Z,21.60
2022-07-25T18:08:01.835Z,21.57
2022-07-25T18:12:54.172Z,21.53
2022-07-25T18:17:44.679Z,21.44
2022-07-25T18:22:35.202Z,21.46
2022-07-25T18:27:26.690Z,21.42
2022-07-25T18:32:19.551Z,21.45
2022-07-25T18:37:09.554Z,21.44
2022-07-25T18:42:04.884Z,21.36
2022-07-25T18:46:54.844Z,21.27
2022-07-25T18:51:46.888Z,21.21
2022-07-25T18:56:36.433Z,21.15
2022-07-25T19:01:26.154Z,21.12
2022-07-25T19:06:16.381Z,21.06
2022-07-25T19:11:08.812Z,21.01
2022-07-25T19:15:58.358Z,21.00
2022-07-25T19:20:50.682Z,20.96
2022-07-25T19:25:49.475Z,20.91
2022-07-25T19:30:42.696Z,20.83
2022-07-25T19:35:37.464Z,20.81
2022-07-25T19:40:26.976Z,20.78
2022-07-25T19:45:16.451Z,20.74
2022-07-25T19:50:10.055Z,20.68
2022-07-25T19:55:00.350Z,20.65
2022-07-25T19:59:49.764Z,20.61
2022-07-25T20:04:39.229Z,20.54
2022-07-25T20:09:32.761Z,20.51
2022-07-25T20:14:22.185Z,20.48
2022-07-25T20:19:15.106Z,20.40
2022-07-25T20:24:05.765Z,20.33
2022-07-25T20:29:01.251Z,20.28
2022-07-25T20:33:51.154Z,20.23
2022-07-25T20:38:40.544Z,20.20
2022-07-25T20:43:31.307Z,20.11
2022-07-25T20:48:23.426Z,20.05
2022-07-25T20:53:12.928Z,20.03
2022-07-25T20:58:03.147Z,20.01
2022-07-25T21:02:52.684Z,19.96
2022-07-25T21:07:44.786Z,19.93
2022-07-25T21:12:35.503Z,19.95
2022-07-25T21:17:24.906Z,19.94
2022-07-25T21:22:14.387Z,19.91
2022-07-25T21:27:06.832Z,19.93
2022-07-25T21:31:56.496Z,19.93
2022-07-25T21:36:45.980Z,19.97
2022-07-25T21:41:35.561Z,19.98
2022-07-25T21:46:27.699Z,20.03
2022-07-25T21:51:19.151Z,20.01
2022-07-25T21:56:12.602Z,20.05
2022-07-25T22:01:02.172Z,20.08
2022-07-25T22:05:54.378Z,20.06
2022-07-25T22:10:43.844Z,20.06
2022-07-25T22:15:33.270Z,20.10
2022-07-25T22:20:22.976Z,20.10
2022-07-25T22:25:15.358Z,20.11
2022-07-25T22:30:05.096Z,20.17
2022-07-25T22:34:54.530Z,20.21
2022-07-25T22:39:43.916Z,20.20
2022-07-25T22:44:35.936Z,20.18
2022-07-25T22:49:26.299Z,20.18
2022-07-25T22:54:15.862Z,20.14
2022-07-25T22:59:05.759Z,20.08
2022-07-25T23:03:58.367Z,20.06
2022-07-25T23:08:47.994Z,20.11
2022-07-25T23:13:38.065Z,20.18
2022-07-25T23:18:27.702Z,20.19
2022-07-25T23:23:19.903Z,20.19
2022-07-25T23:28:09.383Z,20.17
2022-07-25T23:32:58.815Z,20.17
2022-07-25T23:37:49.019Z,20.14
2022-07-25T23:42:41.177Z,20.08
2022-07-25T23:47:40.734Z,20.05
2022-07-25T23:52:31.364Z,20.03
2022-07-25T23:57:20.900Z,20.03
